Time;durP1;ratioP1;P1;durP2;ratioP2;P2;SDS_P1;SDS_P2;PMS_P1;PMS_P2;Temp;Humidity;BMP_temperature;BMP_pressure;BME280_temperature;BME280_humidity;BME280_pressure;Samples;Min_cycle;Max_cycle;Signal;HPM_P1;HPM_P2
2021/09/24 00:01:21;;;;;;;1.50;1.00;;;17.80;98.20;;;;;;5036247;28;20466;-79
2021/09/24 00:03:47;;;;;;;1.50;0.90;;;17.80;98.20;;;;;;5034941;28;20582;-79
2021/09/24 00:06:16;;;;;;;1.50;0.97;;;17.80;98.20;;;;;;5043596;28;20486;-79
2021/09/24 00:08:43;;;;;;;1.50;1.00;;;17.80;98.20;;;;;;5038117;28;20977;-79
2021/09/24 00:11:09;;;;;;;1.50;0.90;;;17.80;98.20;;;;;;5035187;28;20471;-80
2021/09/24 00:13:36;;;;;;;1.50;1.00;;;17.80;98.20;;;;;;5035909;28;20467;-79
2021/09/24 00:16:06;;;;;;;1.50;0.90;;;17.80;98.20;;;;;;5034144;28;20595;-79
2021/09/24 00:18:33;;;;;;;1.50;0.90;;;17.80;98.20;;;;;;5034827;28;20478;-79
2021/09/24 00:21:00;;;;;;;1.50;1.00;;;17.80;98.20;;;;;;5035627;28;20585;-79
2021/09/24 00:23:28;;;;;;;1.50;1.00;;;17.80;98.20;;;;;;5032343;28;20463;-80
2021/09/24 00:25:54;;;;;;;1.50;1.00;;;17.80;98.20;;;;;;5034877;28;20483;-80
2021/09/24 00:28:21;;;;;;;1.50;1.00;;;17.80;98.20;;;;;;5032789;28;20482;-79
2021/09/24 00:30:48;;;;;;;1.50;0.90;;;17.70;98.20;;;;;;5034057;28;20491;-79
2021/09/24 00:33:15;;;;;;;1.50;0.97;;;17.70;98.20;;;;;;5035325;28;20463;-80
2021/09/24 00:35:41;;;;;;;1.50;0.90;;;17.70;98.20;;;;;;5035344;28;20483;-79
2021/09/24 00:38:08;;;;;;;1.50;1.00;;;17.70;98.20;;;;;;5037593;28;20474;-79
2021/09/24 00:40:36;;;;;;;1.50;1.00;;;17.70;98.20;;;;;;5034156;28;20919;-80
2021/09/24 00:43:04;;;;;;;1.50;0.93;;;17.70;98.20;;;;;;5030282;28;20554;-80
2021/09/24 00:45:31;;;;;;;1.50;1.00;;;17.70;98.20;;;;;;5030480;28;20499;-79
2021/09/24 00:47:58;;;;;;;1.50;1.00;;;17.70;98.20;;;;;;5027927;28;20546;-79
2021/09/24 00:50:24;;;;;;;1.50;0.90;;;17.70;98.20;;;;;;5027389;28;20467;-79
2021/09/24 00:52:53;;;;;;;1.50;1.00;;;17.60;98.20;;;;;;5031783;28;20463;-79
2021/09/24 00:55:20;;;;;;;1.50;1.00;;;17.60;98.20;;;;;;5022799;28;20455;-80
2021/09/24 00:57:49;;;;;;;1.50;1.00;;;17.70;98.20;;;;;;5032488;28;20609;-80
2021/09/24 01:00:16;;;;;;;1.50;0.90;;;17.60;98.20;;;;;;5026910;28;20459;-79
2021/09/24 01:02:43;;;;;;;1.50;0.90;;;17.60;98.20;;;;;;5030366;28;20753;-79
2021/09/24 01:05:12;;;;;;;1.50;1.00;;;17.60;98.20;;;;;;5033587;28;20923;-80
2021/09/24 01:07:40;;;;;;;1.50;1.00;;;17.60;98.20;;;;;;5042321;28;20996;-79
2021/09/24 01:10:08;;;;;;;1.50;1.00;;;17.60;98.20;;;;;;5032325;28;20750;-80
2021/09/24 01:12:36;;;;;;;1.50;1.00;;;17.60;98.20;;;;;;5030955;28;20459;-79
2021/09/24 01:15:07;;;;;;;1.50;1.00;;;17.60;98.20;;;;;;5025028;28;20455;-80
2021/09/24 01:17:34;;;;;;;1.50;0.90;;;17.60;98.20;;;;;;5026800;28;20494;-80
2021/09/24 01:20:01;;;;;;;1.50;1.00;;;17.60;98.20;;;;;;5034431;28;20463;-80
2021/09/24 01:22:32;;;;;;;1.50;0.90;;;17.60;98.20;;;;;;5032070;28;20466;-79
2021/09/24 01:24:59;;;;;;;1.50;1.00;;;17.60;98.20;;;;;;5029206;28;21284;-79
2021/09/24 01:27:26;;;;;;;1.50;0.90;;;17.60;98.20;;;;;;5025046;28;20495;-80
2021/09/24 01:29:55;;;;;;;1.50;1.00;;;17.60;98.20;;;;;;5036023;28;20760;-80
2021/09/24 01:32:22;;;;;;;1.50;1.00;;;17.60;98.20;;;;;;5032794;28;20538;-80
2021/09/24 01:34:49;;;;;;;1.50;0.90;;;17.50;98.20;;;;;;5028459;28;20467;-79
2021/09/24 01:37:16;;;;;;;1.50;1.00;;;17.50;98.20;;;;;;5015645;28;20490;-79
2021/09/24 01:39:44;;;;;;;1.50;1.00;;;17.50;98.20;;;;;;5030515;28;20459;-79
2021/09/24 01:42:11;;;;;;;1.50;1.00;;;17.50;98.20;;;;;;5036327;28;20463;-80
2021/09/24 01:44:38;;;;;;;1.50;0.90;;;17.50;98.20;;;;;;5032765;28;20480;-79
2021/09/24 01:47:05;;;;;;;1.50;0.90;;;17.60;98.20;;;;;;5030790;28;21148;-80
2021/09/24 01:49:31;;;;;;;1.50;0.93;;;17.50;98.20;;;;;;5029449;28;20570;-79
2021/09/24 01:52:06;;;;;;;1.50;0.90;;;17.50;98.20;;;;;;5030196;28;20474;-79
2021/09/24 01:54:32;;;;;;;1.50;0.90;;;17.50;98.20;;;;;;5029437;28;20462;-79
2021/09/24 01:57:00;;;;;;;1.50;0.97;;;17.50;98.20;;;;;;5029408;28;21008;-79
2021/09/24 01:59:27;;;;;;;1.50;1.00;;;17.50;98.20;;;;;;5034072;28;20824;-80
2021/09/24 02:01:54;;;;;;;1.50;1.00;;;17.50;98.20;;;;;;5031676;28;20479;-80
2021/09/24 02:04:21;;;;;;;1.50;0.90;;;17.50;98.20;;;;;;5028002;28;20482;-79
2021/09/24 02:06:48;;;;;;;1.50;1.00;;;17.50;98.20;;;;;;5043061;28;20482;-80
2021/09/24 02:09:15;;;;;;;1.50;1.00;;;17.50;98.20;;;;;;5037555;28;20464;-79
2021/09/24 02:11:42;;;;;;;1.50;0.90;;;17.50;98.20;;;;;;5040655;28;20470;-80
2021/09/24 02:14:10;;;;;;;1.50;1.00;;;17.50;98.20;;;;;;5038490;28;20844;-79
2021/09/24 02:16:36;;;;;;;1.50;0.90;;;17.50;98.20;;;;;;5036429;28;20494;-80
2021/09/24 02:19:03;;;;;;;1.50;1.00;;;17.50;98.20;;;;;;5035922;28;20822;-79
2021/09/24 02:21:30;;;;;;;1.50;1.00;;;17.50;98.20;;;;;;5035526;28;20597;-80
2021/09/24 02:23:57;;;;;;;1.50;0.90;;;17.40;98.20;;;;;;5032668;28;20459;-80
2021/09/24 02:26:24;;;;;;;1.50;0.90;;;17.50;98.20;;;;;;5032401;28;20487;-80
2021/09/24 02:28:50;;;;;;;1.50;0.90;;;17.40;98.20;;;;;;5033295;28;20477;-79
2021/09/24 02:31:18;;;;;;;1.50;0.90;;;17.40;98.20;;;;;;5035533;28;20469;-79
2021/09/24 02:33:45;;;;;;;1.50;0.90;;;17.40;98.20;;;;;;5035091;28;20888;-79
2021/09/24 02:36:12;;;;;;;2.47;1.67;;;17.40;98.20;;;;;;5037973;28;21047;-80
2021/09/24 02:38:39;;;;;;;1.50;1.00;;;17.40;98.20;;;;;;5040088;28;20478;-80
2021/09/24 02:41:09;;;;;;;1.50;1.00;;;17.40;98.20;;;;;;5031823;28;20471;-79
2021/09/24 02:43:36;;;;;;;1.50;0.90;;;17.40;98.20;;;;;;5032841;28;20463;-81
2021/09/24 02:46:02;;;;;;;1.50;1.00;;;17.40;98.20;;;;;;5032820;28;20938;-79
2021/09/24 02:48:31;;;;;;;1.50;0.97;;;17.40;98.20;;;;;;5037413;28;20466;-81
2021/09/24 02:50:58;;;;;;;1.50;1.00;;;17.40;98.20;;;;;;5037215;28;20467;-80
2021/09/24 02:53:24;;;;;;;1.50;0.90;;;17.40;98.20;;;;;;5033205;28;20470;-79
2021/09/24 02:55:52;;;;;;;1.50;1.00;;;17.40;98.20;;;;;;5031745;28;20514;-79
2021/09/24 02:58:18;;;;;;;1.50;1.00;;;17.40;98.20;;;;;;5033044;28;20493;-80
2021/09/24 03:00:45;;;;;;;1.50;1.00;;;17.40;98.20;;;;;;5033201;28;20462;-80
2021/09/24 03:03:12;;;;;;;1.50;1.00;;;17.40;98.20;;;;;;5032068;28;20463;-80
2021/09/24 03:05:40;;;;;;;1.50;1.00;;;17.40;98.20;;;;;;5034107;28;20508;-80
2021/09/24 03:08:07;;;;;;;1.50;0.90;;;17.40;98.20;;;;;;5038797;28;20459;-80
2021/09/24 03:10:34;;;;;;;1.50;0.90;;;17.40;98.20;;;;;;5030077;28;20463;-80
2021/09/24 03:13:01;;;;;;;1.50;0.90;;;17.30;98.20;;;;;;5032879;28;20467;-80
2021/09/24 03:15:28;;;;;;;1.60;1.17;;;17.30;98.20;;;;;;5033079;28;20529;-80
2021/09/24 03:17:55;;;;;;;1.50;1.00;;;17.30;98.20;;;;;;5032591;28;20459;-79
2021/09/24 03:20:22;;;;;;;1.50;1.00;;;17.30;98.20;;;;;;5033569;28;20885;-79
2021/09/24 03:22:51;;;;;;;1.50;1.00;;;17.30;98.20;;;;;;5036393;28;20478;-79
2021/09/24 03:25:17;;;;;;;1.50;1.00;;;17.30;98.20;;;;;;5032477;28;20487;-80
2021/09/24 03:27:44;;;;;;;1.50;0.90;;;17.30;98.20;;;;;;5032197;28;20672;-80
2021/09/24 03:30:12;;;;;;;1.50;0.90;;;17.30;98.20;;;;;;5031110;28;20466;-80
2021/09/24 03:32:39;;;;;;;1.50;0.90;;;17.30;98.20;;;;;;5036514;28;20834;-79
2021/09/24 03:35:06;;;;;;;1.50;0.90;;;17.30;98.20;;;;;;5036302;28;20827;-79
2021/09/24 03:37:33;;;;;;;1.50;1.10;;;17.30;98.20;;;;;;5028825;28;20534;-79
2021/09/24 03:40:02;;;;;;;1.50;0.90;;;17.20;98.20;;;;;;5032399;28;20861;-79
2021/09/24 03:42:28;;;;;;;1.50;1.00;;;17.20;98.20;;;;;;5046913;22;20494;-80
2021/09/24 03:44:55;;;;;;;1.50;0.97;;;17.20;98.20;;;;;;5031176;28;20483;-80
2021/09/24 03:47:22;;;;;;;1.50;1.00;;;17.20;98.20;;;;;;5022555;28;20800;-80
2021/09/24 03:49:49;;;;;;;1.50;1.00;;;17.20;98.20;;;;;;5032394;28;20464;-80
2021/09/24 03:52:16;;;;;;;1.50;1.00;;;17.30;98.20;;;;;;5035317;28;20459;-80
2021/09/24 03:54:43;;;;;;;1.50;0.90;;;17.20;98.20;;;;;;5025975;28;20799;-80
2021/09/24 03:57:11;;;;;;;1.50;0.90;;;17.20;98.20;;;;;;5024969;28;20497;-80
2021/09/24 03:59:37;;;;;;;1.50;0.87;;;17.20;98.20;;;;;;5029147;28;20478;-80
2021/09/24 04:02:04;;;;;;;1.50;0.97;;;17.20;98.20;;;;;;5030387;28;20463;-79
2021/09/24 04:04:31;;;;;;;1.50;1.00;;;17.20;98.20;;;;;;5034119;28;20471;-80
2021/09/24 04:06:58;;;;;;;1.50;1.00;;;17.20;98.20;;;;;;5039006;28;20494;-80
2021/09/24 04:09:25;;;;;;;1.50;0.97;;;17.20;98.20;;;;;;5035652;28;20462;-79
2021/09/24 04:11:52;;;;;;;1.60;1.30;;;17.20;98.20;;;;;;5028861;28;20478;-80
2021/09/24 04:14:20;;;;;;;1.50;1.00;;;17.10;98.20;;;;;;5032948;28;20470;-80
2021/09/24 04:16:46;;;;;;;1.50;1.00;;;17.10;98.20;;;;;;5035168;28;20491;-79
2021/09/24 04:19:13;;;;;;;1.50;1.00;;;17.10;98.20;;;;;;5034484;28;20471;-80
2021/09/24 04:21:41;;;;;;;1.50;1.00;;;17.10;98.20;;;;;;5032118;28;20554;-80
2021/09/24 04:24:08;;;;;;;1.50;1.00;;;17.10;98.20;;;;;;5032750;28;20474;-80
2021/09/24 04:26:35;;;;;;;1.50;1.00;;;17.10;98.20;;;;;;5031830;28;21020;-80
2021/09/24 04:29:05;;;;;;;1.50;1.00;;;17.10;98.20;;;;;;5035488;28;20478;-80
2021/09/24 04:31:33;;;;;;;1.50;0.90;;;17.10;98.20;;;;;;5036337;28;20468;-80
2021/09/24 04:34:00;;;;;;;1.50;1.00;;;17.10;98.20;;;;;;5036137;28;20475;-81
2021/09/24 04:36:27;;;;;;;1.50;1.00;;;17.10;98.20;;;;;;5036248;28;20487;-80
2021/09/24 04:38:55;;;;;;;1.50;0.90;;;17.10;98.20;;;;;;5034159;28;20954;-80
2021/09/24 04:41:22;;;;;;;1.50;0.90;;;17.10;98.20;;;;;;5032229;28;20474;-81
2021/09/24 04:43:49;;;;;;;1.50;1.00;;;17.10;98.20;;;;;;5031218;28;20478;-80
2021/09/24 04:46:16;;;;;;;1.50;0.93;;;17.10;98.20;;;;;;5030192;28;20497;-81
2021/09/24 04:48:44;;;;;;;1.50;0.90;;;17.10;98.20;;;;;;5033978;28;20543;-80
2021/09/24 04:51:12;;;;;;;1.50;1.00;;;17.10;98.20;;;;;;5038418;28;20499;-79
2021/09/24 04:53:39;;;;;;;1.50;1.00;;;17.10;98.20;;;;;;5035277;28;20474;-79
2021/09/24 04:56:06;;;;;;;1.50;1.00;;;17.10;98.20;;;;;;5035524;28;20479;-80
2021/09/24 04:58:33;;;;;;;1.50;0.90;;;17.10;98.20;;;;;;5031910;28;20478;-79
2021/09/24 05:03:52;;;;;;;1.50;1.00;;;17.00;98.20;;;;;;5056733;28;20494;-79
2021/09/24 05:06:18;;;;;;;1.50;1.00;;;17.00;98.20;;;;;;5038209;28;20493;-80
2021/09/24 05:08:45;;;;;;;1.50;1.00;;;17.00;98.20;;;;;;5038674;28;20850;-80
2021/09/24 05:11:12;;;;;;;1.50;0.97;;;17.00;98.20;;;;;;5034723;28;20471;-80
2021/09/24 05:13:39;;;;;;;1.50;0.90;;;17.00;98.20;;;;;;5036846;28;20843;-79
2021/09/24 05:16:06;;;;;;;1.50;0.90;;;17.00;98.20;;;;;;5033090;28;20585;-80
2021/09/24 05:18:33;;;;;;;1.50;0.90;;;16.90;98.20;;;;;;5036025;28;20459;-81
2021/09/24 05:21:01;;;;;;;1.50;1.00;;;16.90;98.20;;;;;;5037786;28;20462;-81
2021/09/24 05:23:28;;;;;;;1.80;1.40;;;16.90;98.20;;;;;;5035698;28;20475;-80
2021/09/24 05:28:57;;;;;;;1.50;0.90;;;16.90;98.20;;;;;;5030222;28;20467;-81
2021/09/24 05:31:24;;;;;;;1.50;0.90;;;16.90;98.20;;;;;;5032963;28;20459;-81
2021/09/24 05:33:52;;;;;;;1.50;1.00;;;16.90;98.20;;;;;;5033164;28;20463;-80
2021/09/24 05:36:20;;;;;;;1.50;1.00;;;16.80;98.20;;;;;;5033616;28;20483;-80
2021/09/24 05:38:56;;;;;;;1.50;1.00;;;16.80;98.20;;;;;;5034967;28;20467;-80
2021/09/24 05:41:23;;;;;;;1.50;1.00;;;16.80;98.20;;;;;;5032417;28;20465;-80
2021/09/24 05:43:50;;;;;;;1.50;1.00;;;16.80;98.20;;;;;;5031715;28;20936;-80
2021/09/24 05:46:17;;;;;;;1.50;1.00;;;16.80;98.20;;;;;;5031777;28;20515;-80
2021/09/24 05:48:44;;;;;;;1.50;0.90;;;16.80;98.20;;;;;;5032464;28;20827;-81
2021/09/24 05:51:11;;;;;;;1.50;1.00;;;16.80;98.20;;;;;;5032656;28;20839;-80
2021/09/24 05:53:39;;;;;;;1.50;1.00;;;16.80;98.20;;;;;;5034430;28;20474;-80
2021/09/24 05:56:06;;;;;;;1.50;1.00;;;16.80;98.20;;;;;;5032504;28;20566;-80
2021/09/24 05:58:33;;;;;;;1.50;0.90;;;16.80;98.20;;;;;;5031108;28;20878;-78
2021/09/24 06:01:00;;;;;;;1.50;1.00;;;16.80;98.20;;;;;;5030995;28;20470;-81
2021/09/24 06:03:27;;;;;;;1.50;0.90;;;16.80;98.20;;;;;;5034787;28;20627;-80
2021/09/24 06:05:54;;;;;;;1.50;0.90;;;16.80;98.20;;;;;;5033144;28;20487;-82
2021/09/24 06:08:21;;;;;;;1.57;1.00;;;16.80;98.20;;;;;;5033873;28;20510;-80
2021/09/24 06:10:49;;;;;;;1.50;1.00;;;16.70;98.20;;;;;;5032133;28;20463;-81
2021/09/24 06:13:15;;;;;;;1.50;1.00;;;16.70;98.20;;;;;;5032414;28;20459;-81
2021/09/24 06:15:43;;;;;;;1.50;0.90;;;16.70;98.20;;;;;;5029434;28;20479;-81
2021/09/24 06:18:09;;;;;;;1.50;1.00;;;16.70;98.20;;;;;;5030560;28;21081;-81
2021/09/24 06:20:36;;;;;;;1.50;1.00;;;16.70;98.20;;;;;;5032603;28;20517;-81
2021/09/24 06:23:03;;;;;;;1.50;1.00;;;16.70;98.20;;;;;;5031320;28;20455;-81
2021/09/24 06:25:30;;;;;;;1.50;1.00;;;16.70;98.20;;;;;;5029720;28;20479;-81
2021/09/24 06:27:59;;;;;;;1.50;1.00;;;16.70;98.20;;;;;;5030462;28;20485;-81
2021/09/24 06:30:26;;;;;;;1.50;0.90;;;16.70;98.20;;;;;;5031225;28;20459;-81
2021/09/24 06:32:54;;;;;;;1.50;0.93;;;16.70;98.20;;;;;;5030435;28;20978;-82
2021/09/24 06:35:21;;;;;;;1.50;1.00;;;16.70;98.20;;;;;;5030394;28;20490;-81
2021/09/24 06:37:48;;;;;;;1.50;0.90;;;16.70;98.20;;;;;;5035122;28;20463;-80
2021/09/24 06:40:15;;;;;;;1.50;1.00;;;16.80;98.20;;;;;;5029834;28;20472;-81
2021/09/24 06:42:42;;;;;;;1.50;0.90;;;16.70;98.20;;;;;;5031027;28;20480;-81
2021/09/24 06:45:12;;;;;;;1.50;0.90;;;16.70;98.20;;;;;;5030655;28;20478;-81
2021/09/24 06:47:39;;;;;;;1.50;0.90;;;16.80;98.20;;;;;;5023089;28;20522;-81
2021/09/24 06:50:07;;;;;;;1.50;1.00;;;16.80;98.20;;;;;;5025593;28;20475;-81
2021/09/24 06:52:33;;;;;;;1.50;1.00;;;16.80;98.20;;;;;;5035170;28;20471;-82
2021/09/24 06:55:00;;;;;;;1.50;0.93;;;16.80;98.20;;;;;;5030270;28;20470;-81
2021/09/24 06:57:27;;;;;;;1.50;0.90;;;16.90;98.20;;;;;;5031079;28;20978;-81
2021/09/24 06:59:54;;;;;;;1.50;1.00;;;16.90;98.20;;;;;;5030686;28;20471;-82
2021/09/24 07:02:22;;;;;;;1.50;1.00;;;16.90;98.20;;;;;;5032248;28;20478;-80
2021/09/24 07:04:49;;;;;;;1.50;1.00;;;16.90;98.20;;;;;;5031219;28;20463;-80
2021/09/24 07:07:16;;;;;;;1.50;1.00;;;17.00;98.20;;;;;;5041147;28;20530;-80
2021/09/24 07:09:43;;;;;;;1.50;1.07;;;17.00;98.20;;;;;;5033300;28;20477;-80
2021/09/24 07:12:10;;;;;;;1.50;1.00;;;17.00;98.20;;;;;;5030485;28;20464;-81
2021/09/24 07:14:37;;;;;;;1.50;0.90;;;17.00;98.20;;;;;;5030003;28;20880;-81
2021/09/24 07:17:05;;;;;;;1.50;0.90;;;17.10;98.20;;;;;;5030686;28;20475;-81
2021/09/24 07:19:33;;;;;;;1.50;1.00;;;17.10;98.20;;;;;;5028834;28;20463;-81
2021/09/24 07:22:00;;;;;;;1.50;0.90;;;17.10;98.20;;;;;;5029558;28;20553;-81
2021/09/24 07:24:27;;;;;;;1.50;1.00;;;17.20;98.20;;;;;;5028742;28;20508;-80
2021/09/24 07:26:54;;;;;;;1.50;1.00;;;17.20;98.20;;;;;;5028366;28;20617;-80
2021/09/24 07:29:21;;;;;;;1.50;0.90;;;17.20;98.20;;;;;;5027791;28;20471;-79
2021/09/24 07:31:48;;;;;;;1.53;1.00;;;17.20;98.20;;;;;;5029160;28;20629;-80
2021/09/24 07:34:15;;;;;;;1.50;0.90;;;17.30;98.20;;;;;;5028915;28;20473;-80
2021/09/24 07:36:43;;;;;;;1.50;0.90;;;17.30;98.20;;;;;;5035658;28;20483;-80
2021/09/24 07:39:10;;;;;;;1.50;1.00;;;17.30;98.20;;;;;;5031451;28;20463;-80
2021/09/24 07:41:37;;;;;;;1.50;1.00;;;17.40;98.20;;;;;;5037285;28;20464;-82
2021/09/24 07:44:05;;;;;;;1.50;0.90;;;17.40;98.20;;;;;;5032109;28;20478;-81
2021/09/24 07:46:34;;;;;;;1.50;0.90;;;17.40;98.20;;;;;;5028985;28;20513;-80
2021/09/24 07:49:01;;;;;;;1.50;0.90;;;17.40;98.20;;;;;;5028950;28;21095;-81
2021/09/24 07:51:28;;;;;;;1.50;1.00;;;17.40;98.20;;;;;;5028238;28;20463;-81
2021/09/24 07:53:56;;;;;;;1.50;1.00;;;17.50;98.20;;;;;;5029427;28;20471;-79
2021/09/24 07:56:24;;;;;;;1.50;1.00;;;17.50;98.20;;;;;;5028512;28;20486;-81
2021/09/24 07:58:51;;;;;;;1.50;0.90;;;17.60;98.20;;;;;;5028737;28;20490;-80
2021/09/24 08:01:18;;;;;;;1.50;0.90;;;17.60;98.20;;;;;;5029316;28;20463;-81
2021/09/24 08:03:45;;;;;;;1.50;0.90;;;17.60;98.20;;;;;;5029657;28;20463;-82
2021/09/24 08:06:12;;;;;;;1.50;0.90;;;17.70;98.20;;;;;;5035237;28;20513;-81
2021/09/24 08:08:39;;;;;;;1.50;0.90;;;17.70;98.20;;;;;;5035761;28;20472;-80
2021/09/24 08:11:10;;;;;;;1.50;0.97;;;17.70;98.20;;;;;;5028213;28;20455;-81
2021/09/24 08:13:37;;;;;;;1.50;1.00;;;17.70;98.20;;;;;;5031016;28;20475;-78
2021/09/24 08:16:05;;;;;;;1.50;0.90;;;17.70;98.20;;;;;;5031214;28;20490;-79
2021/09/24 08:18:37;;;;;;;1.50;1.00;;;17.70;98.20;;;;;;5030472;28;20482;-78
2021/09/24 08:21:07;;;;;;;1.50;0.90;;;17.70;98.20;;;;;;5031492;28;20529;-79
2021/09/24 08:23:35;;;;;;;1.50;0.90;;;17.70;98.20;;;;;;5035403;28;21304;-78
2021/09/24 08:26:02;;;;;;;1.50;0.90;;;17.70;98.20;;;;;;5031925;28;20574;-77
2021/09/24 08:28:31;;;;;;;1.50;0.90;;;17.70;98.20;;;;;;5028156;28;20850;-78
2021/09/24 08:30:59;;;;;;;1.50;1.00;;;17.70;98.20;;;;;;5029554;28;20916;-77
2021/09/24 08:33:27;;;;;;;1.53;1.00;;;17.80;98.20;;;;;;5030709;28;20459;-78
2021/09/24 08:35:58;;;;;;;1.50;1.00;;;17.80;98.20;;;;;;5033862;28;20555;-78
2021/09/24 08:38:25;;;;;;;1.50;1.00;;;17.80;98.20;;;;;;5033114;28;20466;-79
2021/09/24 08:40:56;;;;;;;1.50;0.90;;;17.80;98.20;;;;;;5029129;28;20590;-78
2021/09/24 08:43:24;;;;;;;1.50;1.00;;;17.90;98.20;;;;;;5032195;28;20483;-79
2021/09/24 08:45:52;;;;;;;1.50;0.90;;;17.90;98.20;;;;;;5028338;28;20974;-79
2021/09/24 08:48:20;;;;;;;1.50;1.00;;;18.00;98.20;;;;;;5030712;28;20857;-80
2021/09/24 08:50:51;;;;;;;1.50;0.93;;;18.00;98.20;;;;;;5035077;28;20833;-79
2021/09/24 08:53:21;;;;;;;1.50;0.90;;;18.10;98.20;;;;;;5028476;28;20537;-79
2021/09/24 08:55:49;;;;;;;1.50;1.00;;;18.10;98.20;;;;;;5027424;28;20487;-80
2021/09/24 08:58:19;;;;;;;1.50;0.90;;;18.20;98.20;;;;;;5028225;28;20811;-80
2021/09/24 09:00:47;;;;;;;1.50;0.90;;;18.30;98.20;;;;;;5027867;28;20513;-81
2021/09/24 09:03:18;;;;;;;1.80;1.20;;;18.50;98.20;;;;;;5029366;28;20495;-80
2021/09/24 09:05:48;;;;;;;1.50;1.00;;;18.60;98.20;;;;;;5033380;28;20533;-80
2021/09/24 09:08:18;;;;;;;1.50;0.90;;;18.80;98.20;;;;;;5035153;28;20564;-79
2021/09/24 09:10:52;;;;;;;1.53;1.00;;;18.90;98.20;;;;;;5027767;28;20467;-80
2021/09/24 09:13:21;;;;;;;1.50;0.90;;;19.10;98.20;;;;;;5028865;28;20479;-80
2021/09/24 09:15:57;;;;;;;1.50;0.90;;;19.20;98.20;;;;;;5028404;28;20494;-80
2021/09/24 09:18:26;;;;;;;1.53;0.90;;;19.30;98.20;;;;;;5032167;28;20462;-80
2021/09/24 09:20:54;;;;;;;1.50;1.00;;;19.30;98.20;;;;;;5027951;28;20951;-79
2021/09/24 09:23:23;;;;;;;1.50;0.90;;;19.30;98.20;;;;;;5032856;28;20851;-81
2021/09/24 09:25:53;;;;;;;1.50;0.90;;;19.40;98.20;;;;;;5026625;28;20483;-81
2021/09/24 09:28:29;;;;;;;1.50;1.00;;;19.50;98.20;;;;;;5032012;28;20495;-80
2021/09/24 09:30:56;;;;;;;1.50;0.90;;;19.70;98.20;;;;;;5043735;28;20497;-79
2021/09/24 09:33:26;;;;;;;1.50;0.90;;;19.90;98.20;;;;;;5031013;28;20485;-80
2021/09/24 09:35:56;;;;;;;1.53;0.90;;;20.00;98.20;;;;;;5033150;28;20960;-79
2021/09/24 09:38:26;;;;;;;1.50;0.90;;;20.10;98.20;;;;;;5033164;28;20463;-80
2021/09/24 09:40:57;;;;;;;1.50;0.90;;;20.20;98.20;;;;;;5035177;28;20958;-80
2021/09/24 09:43:31;;;;;;;1.50;0.90;;;20.30;98.20;;;;;;5030298;28;20477;-81
2021/09/24 09:45:59;;;;;;;1.50;1.00;;;20.40;98.20;;;;;;5028077;28;21106;-79
2021/09/24 09:48:28;;;;;;;1.50;0.90;;;20.50;98.00;;;;;;5028232;28;21036;-80
2021/09/24 09:50:55;;;;;;;1.50;0.90;;;20.60;97.60;;;;;;5031426;28;20565;-81
2021/09/24 09:53:23;;;;;;;1.50;0.90;;;20.70;97.20;;;;;;5028293;28;20483;-80
2021/09/24 09:55:53;;;;;;;1.50;0.90;;;20.90;97.00;;;;;;5026623;28;20647;-80
2021/09/24 09:58:23;;;;;;;1.50;0.90;;;21.10;96.40;;;;;;5027592;28;20487;-80
2021/09/24 10:01:06;;;;;;;1.53;0.90;;;21.20;95.80;;;;;;5028881;28;20467;-81
2021/09/24 10:03:40;;;;;;;1.60;1.10;;;21.30;95.30;;;;;;5037745;28;20479;-81
2021/09/24 10:06:21;;;;;;;1.50;0.90;;;21.30;94.80;;;;;;5036555;28;20922;-80
2021/09/24 10:08:52;;;;;;;1.50;0.90;;;21.30;94.70;;;;;;5033408;28;20487;-80
2021/09/24 10:11:20;;;;;;;1.50;0.90;;;21.40;94.70;;;;;;5033402;28;20558;-80
2021/09/24 10:13:55;;;;;;;1.50;0.90;;;21.50;94.60;;;;;;5029520;28;20479;-81
2021/09/24 10:16:29;;;;;;;1.50;0.90;;;21.60;93.90;;;;;;5028319;28;20557;-80
2021/09/24 10:19:01;;;;;;;1.50;0.90;;;21.80;94.20;;;;;;5022067;28;20463;-80
2021/09/24 10:21:29;;;;;;;1.53;0.93;;;22.00;93.40;;;;;;5026149;28;20904;-80
2021/09/24 10:23:56;;;;;;;1.53;1.00;;;22.00;92.60;;;;;;5029092;28;21002;-80
2021/09/24 10:26:28;;;;;;;1.50;0.90;;;22.10;92.80;;;;;;5030381;28;20527;-79
2021/09/24 10:28:59;;;;;;;1.50;0.90;;;22.30;92.40;;;;;;5034328;28;20521;-80
2021/09/24 10:31:28;;;;;;;1.50;0.90;;;22.50;91.90;;;;;;5036119;28;20868;-82
2021/09/24 10:34:01;;;;;;;1.50;0.90;;;22.60;91.60;;;;;;5032439;28;20481;-81
2021/09/24 10:36:41;;;;;;;1.50;0.90;;;22.60;91.30;;;;;;5035294;28;20547;-83
2021/09/24 10:39:47;;;;;;;1.50;0.90;;;22.70;91.60;;;;;;5033472;28;20462;-81
2021/09/24 10:42:29;;;;;;;1.50;0.90;;;22.80;90.90;;;;;;5031629;28;20999;-78
2021/09/24 10:45:04;;;;;;;1.50;0.90;;;22.80;89.70;;;;;;5033062;28;20486;-79
2021/09/24 10:47:50;;;;;;;1.50;0.90;;;22.70;90.20;;;;;;5027921;28;20936;-80
2021/09/24 10:50:55;;;;;;;1.50;0.90;;;22.60;90.60;;;;;;5033056;28;20485;-82
2021/09/24 10:53:26;;;;;;;1.50;0.90;;;22.50;90.50;;;;;;4965367;28;20462;-79
2021/09/24 10:56:32;;;;;;;1.50;0.90;;;22.50;90.70;;;;;;4966631;28;20517;-81
2021/09/24 10:59:20;;;;;;;1.50;0.90;;;22.50;90.90;;;;;;5021872;28;20525;-81
2021/09/24 11:01:47;;;;;;;1.70;1.57;;;22.40;90.30;;;;;;5031787;28;20467;-81
2021/09/24 11:04:14;;;;;;;1.50;0.90;;;22.40;91.20;;;;;;5030805;28;20558;-81
2021/09/24 11:06:47;;;;;;;1.50;0.90;;;22.30;90.90;;;;;;5037781;28;20492;-82
2021/09/24 11:09:18;;;;;;;1.50;0.90;;;22.20;90.80;;;;;;5031194;28;20451;-81
2021/09/24 11:11:47;;;;;;;1.50;0.90;;;22.10;91.70;;;;;;5028578;28;20502;-81
2021/09/24 11:14:34;;;;;;;1.50;0.90;;;22.00;91.60;;;;;;5031442;28;20470;-80
2021/09/24 11:17:04;;;;;;;1.50;0.90;;;21.80;92.30;;;;;;5031752;28;20497;-80
2021/09/24 11:19:41;;;;;;;1.50;0.90;;;21.70;92.90;;;;;;5018512;28;20587;-79
2021/09/24 11:22:15;;;;;;;1.50;0.90;;;21.60;92.90;;;;;;5028608;28;20479;-80
2021/09/24 11:24:47;;;;;;;1.50;0.90;;;21.50;92.90;;;;;;5022443;28;20479;-80
2021/09/24 11:27:30;;;;;;;1.50;0.90;;;21.50;92.80;;;;;;5023248;28;20505;-80
2021/09/24 11:30:21;;;;;;;1.50;0.90;;;21.40;93.50;;;;;;5030224;28;20813;-81
2021/09/24 11:32:53;;;;;;;1.50;1.00;;;21.40;93.40;;;;;;5026020;28;20541;-79
2021/09/24 11:35:32;;;;;;;1.50;0.90;;;21.50;93.20;;;;;;5031527;28;20490;-80
2021/09/24 11:38:18;;;;;;;1.50;1.00;;;21.50;93.00;;;;;;5030399;28;20459;-80
2021/09/24 11:40:54;;;;;;;1.50;0.90;;;21.50;93.20;;;;;;5028247;28;20473;-80
2021/09/24 11:43:26;;;;;;;1.50;0.90;;;21.60;92.80;;;;;;5026749;28;20490;-80
2021/09/24 11:45:54;;;;;;;1.50;0.87;;;21.60;92.80;;;;;;5034686;28;20475;-80
2021/09/24 11:48:29;;;;;;;1.50;0.90;;;21.70;92.70;;;;;;5028215;28;20597;-79
2021/09/24 11:50:59;;;;;;;1.50;0.90;;;21.70;92.30;;;;;;5027772;28;21170;-79
2021/09/24 11:53:48;;;;;;;1.50;0.90;;;21.70;91.60;;;;;;5033273;28;20466;-81
2021/09/24 11:56:30;;;;;;;1.50;0.90;;;21.70;92.10;;;;;;5027419;28;20492;-80
2021/09/24 11:59:03;;;;;;;1.50;0.90;;;21.80;91.50;;;;;;5024137;28;20577;-80
2021/09/24 12:01:32;;;;;;;1.50;0.90;;;21.80;91.10;;;;;;5031142;28;20463;-82
2021/09/24 12:04:00;;;;;;;1.50;0.90;;;21.90;91.20;;;;;;5028618;28;20471;-80
2021/09/24 12:06:29;;;;;;;1.50;0.90;;;21.90;91.40;;;;;;5032485;28;20487;-81
2021/09/24 12:09:03;;;;;;;1.47;0.90;;;21.90;91.20;;;;;;5038909;28;20502;-80
2021/09/24 12:11:42;;;;;;;1.50;0.90;;;21.90;91.00;;;;;;5028907;28;20525;-80
2021/09/24 12:14:09;;;;;;;1.50;0.90;;;21.90;91.70;;;;;;5028889;28;20494;-80
2021/09/24 12:16:40;;;;;;;1.50;0.90;;;21.90;91.60;;;;;;5029735;28;20502;-80
2021/09/24 12:19:09;;;;;;;1.50;0.90;;;22.00;91.30;;;;;;5025441;28;20490;-80
2021/09/24 12:21:51;;;;;;;1.50;0.90;;;22.00;92.00;;;;;;5022627;28;20471;-80
2021/09/24 12:24:21;;;;;;;1.50;0.90;;;22.00;91.70;;;;;;5035442;28;20459;-80
2021/09/24 12:26:52;;;;;;;1.50;0.90;;;22.00;91.00;;;;;;5035311;28;20784;-79
2021/09/24 12:29:24;;;;;;;1.50;1.00;;;22.00;91.00;;;;;;5032024;28;20932;-82
2021/09/24 12:31:53;;;;;;;1.50;0.90;;;22.00;91.30;;;;;;5029608;28;20474;-80
2021/09/24 12:34:22;;;;;;;1.50;0.90;;;22.00;91.70;;;;;;5028406;28;20487;-80
2021/09/24 12:36:58;;;;;;;1.50;0.90;;;22.00;91.30;;;;;;5032967;28;21001;-81
2021/09/24 12:39:30;;;;;;;1.50;0.90;;;21.90;91.60;;;;;;5032630;28;20487;-81
2021/09/24 12:42:03;;;;;;;1.50;0.90;;;21.90;91.80;;;;;;5030076;28;20521;-82
2021/09/24 12:44:30;;;;;;;1.50;0.90;;;21.90;91.70;;;;;;5028139;28;20751;-80
2021/09/24 12:46:59;;;;;;;1.50;0.90;;;21.80;91.40;;;;;;5030126;28;20479;-80
2021/09/24 12:49:29;;;;;;;1.50;0.90;;;21.80;91.40;;;;;;5031902;28;20510;-80
2021/09/24 12:51:57;;;;;;;1.50;0.90;;;21.70;91.70;;;;;;5027476;28;20863;-80
2021/09/24 12:54:41;;;;;;;1.50;0.90;;;21.70;92.00;;;;;;5035997;28;20485;-79
2021/09/24 12:57:13;;;;;;;1.50;0.90;;;21.70;91.70;;;;;;5034441;28;20886;-81
2021/09/24 12:59:40;;;;;;;1.60;1.13;;;21.70;91.90;;;;;;5030221;28;20939;-81
2021/09/24 13:02:09;;;;;;;1.50;0.90;;;21.70;92.20;;;;;;5030837;28;20482;-80
2021/09/24 13:04:37;;;;;;;1.50;0.90;;;21.70;92.30;;;;;;5027155;28;20482;-81